Accueil
METAR-TAF:

METAR-TAF

Aéroports :

New Stuyahok, Alaska, États-Unis

latitude: 59-27-06N, longitude: 157-22-23W, altitude: 111 m

Observation

Le bulletin a été fait il y a 48 minutes, à 22:56 UTC
Vent calme
Température -18°C
Humidité 77%
Pression 1012 hPa
Visibilité: 16.1 km
Ciel clair

METAR: PANW 222256Z AUTO 00000KT 10SM CLR M18/M21 A2989 RMK AO2 SNB22E32 SLP137 P0000 T11831206 FZRANO

Heure: 14:44 (23:44 UTC)


TAF: absent

Observations et prévisions météorologiques de plus de 4000 aéroports (messages METAR et TAF).

Les stations disponibles sont représentées par des disques jaunes et rouges sur la carte.

Passer la souris dessus pour voir le nom de la station.

Cliquer dessus pour voir les observations et prévisions météorologiques.

Pour changer de carte: cliquez sur les boutons verts avec une croix noire pour zoomer, sur le bouton vert avec un tiret pour effectuer un zoom arrière, ou sur les flèches vertes pour les cartes adjacentes.


METAR-TAF: